Forside
METAR-TAF:

METAR-TAF

Lufthavne :

Red Wing Regional Airport

Red Wing, Minnesota, USA

Breddekreds: 44-35-25N, længdekreds: 092-29-10W, højde: 239 m

Aktuelle vejr

Denne rapport blev lavet for 24 minutter siden, kl. 08:55 UTC
Vind stille
Temperatur -10°C
Fugtighed 92%
Tryk 1027 hPa
Sigt: 16.1 km
skyfri

METAR: KRGK 270855Z AUTO 00000KT 10SM CLR M10/M11 A3033 RMK AO2

Tid: 04:19 (09:19 UTC)


TAF: fraværende

Vejrobservationer og prognoser fra mere end 4000 lufthavne (METAR og TAF).

De gule og røde prikker repræsenterer de meteorologiske stationer.

Flyt musen over at se navnet på stationen.

Så klik over at se vejr observationer og prognoser.

At skifte det kort: Klik på de grønne knapper med et sort kors for at zoome ind; på den grønne knap med en bindestreg for at zoome ud; eller på de grønne pile for tilstødende kort.


METAR-TAF: